sensor_id;sensor_type;location;lat;lon;timestamp;temperature;humidity
1650;DHT22;822;53.670;8.676;2023-03-01T00:01:52;-0.50;93.00
1650;DHT22;822;53.670;8.676;2023-03-01T00:04:19;-0.50;93.10
1650;DHT22;822;53.670;8.676;2023-03-01T00:06:46;-0.50;93.10
1650;DHT22;822;53.670;8.676;2023-03-01T00:09:15;-0.50;93.20
1650;DHT22;822;53.670;8.676;2023-03-01T00:11:42;-0.50;93.30
1650;DHT22;822;53.670;8.676;2023-03-01T00:14:09;-0.50;93.50
1650;DHT22;822;53.670;8.676;2023-03-01T00:16:38;-0.50;93.60
1650;DHT22;822;53.670;8.676;2023-03-01T00:19:06;-0.40;93.70
1650;DHT22;822;53.670;8.676;2023-03-01T00:21:34;-0.40;93.80
1650;DHT22;822;53.670;8.676;2023-03-01T00:24:02;-0.40;93.80
1650;DHT22;822;53.670;8.676;2023-03-01T00:26:30;-0.40;93.90
1650;DHT22;822;53.670;8.676;2023-03-01T00:28:58;-0.40;93.90
1650;DHT22;822;53.670;8.676;2023-03-01T00:31:27;-0.40;93.90
1650;DHT22;822;53.670;8.676;2023-03-01T00:33:55;-0.40;94.10
1650;DHT22;822;53.670;8.676;2023-03-01T00:36:23;-0.30;94.10
1650;DHT22;822;53.670;8.676;2023-03-01T00:38:51;-0.40;94.20
1650;DHT22;822;53.670;8.676;2023-03-01T00:41:19;-0.30;94.30
1650;DHT22;822;53.670;8.676;2023-03-01T00:43:50;-0.30;94.30
1650;DHT22;822;53.670;8.676;2023-03-01T00:46:23;-0.30;94.30
1650;DHT22;822;53.670;8.676;2023-03-01T00:48:50;-0.30;94.40
1650;DHT22;822;53.670;8.676;2023-03-01T00:51:18;-0.30;94.40
1650;DHT22;822;53.670;8.676;2023-03-01T00:53:49;-0.20;94.40
1650;DHT22;822;53.670;8.676;2023-03-01T00:56:16;-0.30;94.40
1650;DHT22;822;53.670;8.676;2023-03-01T00:58:44;-0.30;94.40
1650;DHT22;822;53.670;8.676;2023-03-01T01:01:14;-0.30;94.40
1650;DHT22;822;53.670;8.676;2023-03-01T01:03:45;-0.40;94.40
1650;DHT22;822;53.670;8.676;2023-03-01T01:06:16;-0.50;94.20
1650;DHT22;822;53.670;8.676;2023-03-01T01:08:45;-0.50;94.30
1650;DHT22;822;53.670;8.676;2023-03-01T01:11:13;-0.60;94.30
1650;DHT22;822;53.670;8.676;2023-03-01T01:13:40;-0.70;94.30
1650;DHT22;822;53.670;8.676;2023-03-01T01:16:08;-0.70;94.40
1650;DHT22;822;53.670;8.676;2023-03-01T01:18:36;-0.70;94.50
1650;DHT22;822;53.670;8.676;2023-03-01T01:21:05;-0.80;94.50
1650;DHT22;822;53.670;8.676;2023-03-01T01:23:32;-0.70;94.60
1650;DHT22;822;53.670;8.676;2023-03-01T01:26:04;-0.70;94.70
1650;DHT22;822;53.670;8.676;2023-03-01T01:28:31;-0.70;94.70
1650;DHT22;822;53.670;8.676;2023-03-01T01:30:59;-0.80;94.60
1650;DHT22;822;53.670;8.676;2023-03-01T01:33:26;-0.80;94.60
1650;DHT22;822;53.670;8.676;2023-03-01T01:35:55;-0.90;94.50
1650;DHT22;822;53.670;8.676;2023-03-01T01:38:22;-0.90;94.50
1650;DHT22;822;53.670;8.676;2023-03-01T01:40:50;-1.00;94.50
1650;DHT22;822;53.670;8.676;2023-03-01T01:43:20;-1.00;94.50
1650;DHT22;822;53.670;8.676;2023-03-01T01:45:48;-1.10;94.50
1650;DHT22;822;53.670;8.676;2023-03-01T01:48:19;-1.00;94.60
1650;DHT22;822;53.670;8.676;2023-03-01T01:50:53;-1.10;94.60
1650;DHT22;822;53.670;8.676;2023-03-01T01:53:24;-1.10;94.60
1650;DHT22;822;53.670;8.676;2023-03-01T01:55:53;-1.10;94.50
1650;DHT22;822;53.670;8.676;2023-03-01T01:58:24;-1.20;94.50
1650;DHT22;822;53.670;8.676;2023-03-01T02:00:53;-1.20;94.50
1650;DHT22;822;53.670;8.676;2023-03-01T02:03:23;-1.20;94.60
1650;DHT22;822;53.670;8.676;2023-03-01T02:05:58;-1.20;94.60
1650;DHT22;822;53.670;8.676;2023-03-01T02:08:31;-1.30;94.60
1650;DHT22;822;53.670;8.676;2023-03-01T02:11:01;-1.20;94.60
1650;DHT22;822;53.670;8.676;2023-03-01T02:13:30;-1.20;94.60
1650;DHT22;822;53.670;8.676;2023-03-01T02:15:58;-1.30;94.60
1650;DHT22;822;53.670;8.676;2023-03-01T02:18:26;-1.20;94.60
1650;DHT22;822;53.670;8.676;2023-03-01T02:21:08;-1.30;94.60
1650;DHT22;822;53.670;8.676;2023-03-01T02:23:42;-1.30;94.60
1650;DHT22;822;53.670;8.676;2023-03-01T02:26:15;-1.30;94.60
1650;DHT22;822;53.670;8.676;2023-03-01T02:28:46;-1.30;94.60
1650;DHT22;822;53.670;8.676;2023-03-01T02:31:17;-1.30;94.40
1650;DHT22;822;53.670;8.676;2023-03-01T02:34:02;-1.40;94.40
1650;DHT22;822;53.670;8.676;2023-03-01T02:36:34;-1.40;94.40
1650;DHT22;822;53.670;8.676;2023-03-01T02:39:03;-1.40;94.50
1650;DHT22;822;53.670;8.676;2023-03-01T02:41:35;-1.40;94.50
1650;DHT22;822;53.670;8.676;2023-03-01T02:44:04;-1.50;94.40
1650;DHT22;822;53.670;8.676;2023-03-01T02:46:32;-1.50;94.30
1650;DHT22;822;53.670;8.676;2023-03-01T02:48:59;-1.50;94.40
1650;DHT22;822;53.670;8.676;2023-03-01T02:51:45;-1.50;94.50
1650;DHT22;822;53.670;8.676;2023-03-01T02:54:20;-1.50;94.50
1650;DHT22;822;53.670;8.676;2023-03-01T02:56:53;-1.50;94.50
1650;DHT22;822;53.670;8.676;2023-03-01T02:59:24;-1.50;94.50
1650;DHT22;822;53.670;8.676;2023-03-01T03:01:54;-1.50;94.50
1650;DHT22;822;53.670;8.676;2023-03-01T03:04:22;-1.50;94.50
1650;DHT22;822;53.670;8.676;2023-03-01T03:06:51;-1.50;94.50
1650;DHT22;822;53.670;8.676;2023-03-01T03:09:18;-1.50;94.50
1650;DHT22;822;53.670;8.676;2023-03-01T03:11:46;-1.50;94.50
1650;DHT22;822;53.670;8.676;2023-03-01T03:14:15;-1.50;94.40
1650;DHT22;822;53.670;8.676;2023-03-01T03:16:45;-1.50;94.50
1650;DHT22;822;53.670;8.676;2023-03-01T03:19:14;-1.50;94.40
1650;DHT22;822;53.670;8.676;2023-03-01T03:21:42;-1.50;94.40
1650;DHT22;822;53.670;8.676;2023-03-01T03:24:09;-1.50;94.40
1650;DHT22;822;53.670;8.676;2023-03-01T03:26:36;-1.40;94.40
1650;DHT22;822;53.670;8.676;2023-03-01T03:29:03;-1.50;94.40
1650;DHT22;822;53.670;8.676;2023-03-01T03:31:31;-1.50;94.30
1650;DHT22;822;53.670;8.676;2023-03-01T03:34:00;-1.50;94.30
1650;DHT22;822;53.670;8.676;2023-03-01T03:36:27;-1.50;94.30
1650;DHT22;822;53.670;8.676;2023-03-01T03:38:54;-1.50;94.30
1650;DHT22;822;53.670;8.676;2023-03-01T03:41:21;-1.50;94.30
1650;DHT22;822;53.670;8.676;2023-03-01T03:43:49;-1.50;94.30
1650;DHT22;822;53.670;8.676;2023-03-01T03:46:16;-1.60;94.20
1650;DHT22;822;53.670;8.676;2023-03-01T03:48:44;-1.60;94.00
1650;DHT22;822;53.670;8.676;2023-03-01T03:51:14;-1.70;94.00
1650;DHT22;822;53.670;8.676;2023-03-01T03:53:41;-1.70;94.00
1650;DHT22;822;53.670;8.676;2023-03-01T03:56:09;-1.80;94.00
1650;DHT22;822;53.670;8.676;2023-03-01T03:58:36;-1.80;94.00
1650;DHT22;822;53.670;8.676;2023-03-01T04:01:04;-1.80;94.00
1650;DHT22;822;53.670;8.676;2023-03-01T04:03:32;-1.80;94.00
1650;DHT22;822;53.670;8.676;2023-03-01T04:06:01;-1.80;94.00
1650;DHT22;822;53.670;8.676;2023-03-01T04:08:29;-1.80;94.10
1650;DHT22;822;53.670;8.676;2023-03-01T04:10:59;-1.80;94.10
1650;DHT22;822;53.670;8.676;2023-03-01T04:13:47;-1.80;94.10
1650;DHT22;822;53.670;8.676;2023-03-01T04:16:14;-1.90;94.10
1650;DHT22;822;53.670;8.676;2023-03-01T04:18:41;-1.90;94.20
1650;DHT22;822;53.670;8.676;2023-03-01T04:21:08;-1.80;94.30
1650;DHT22;822;53.670;8.676;2023-03-01T04:23:37;-1.80;94.30
1650;DHT22;822;53.670;8.676;2023-03-01T04:26:06;-1.70;94.40
1650;DHT22;822;53.670;8.676;2023-03-01T04:28:35;-1.70;94.40
1650;DHT22;822;53.670;8.676;2023-03-01T04:31:05;-1.70;94.40
1650;DHT22;822;53.670;8.676;2023-03-01T04:33:39;-1.70;94.40
1650;DHT22;822;53.670;8.676;2023-03-01T04:36:08;-1.70;94.40
1650;DHT22;822;53.670;8.676;2023-03-01T04:38:37;-1.70;94.40
1650;DHT22;822;53.670;8.676;2023-03-01T04:41:06;-1.70;94.40
1650;DHT22;822;53.670;8.676;2023-03-01T04:43:34;-1.80;94.30
1650;DHT22;822;53.670;8.676;2023-03-01T04:46:02;-1.80;94.30
1650;DHT22;822;53.670;8.676;2023-03-01T04:48:30;-1.90;94.30
1650;DHT22;822;53.670;8.676;2023-03-01T04:50:58;-1.90;94.40
1650;DHT22;822;53.670;8.676;2023-03-01T04:53:26;-2.00;94.40
1650;DHT22;822;53.670;8.676;2023-03-01T04:55:56;-2.00;94.40
1650;DHT22;822;53.670;8.676;2023-03-01T04:58:23;-2.00;94.40
1650;DHT22;822;53.670;8.676;2023-03-01T05:00:51;-2.00;94.40
1650;DHT22;822;53.670;8.676;2023-03-01T05:03:18;-2.00;94.40
1650;DHT22;822;53.670;8.676;2023-03-01T05:05:46;-2.00;94.40
1650;DHT22;822;53.670;8.676;2023-03-01T05:08:14;-2.00;94.50
1650;DHT22;822;53.670;8.676;2023-03-01T05:10:45;-2.10;94.50
1650;DHT22;822;53.670;8.676;2023-03-01T05:13:14;-2.10;94.50
1650;DHT22;822;53.670;8.676;2023-03-01T05:15:47;-2.00;94.60
1650;DHT22;822;53.670;8.676;2023-03-01T05:18:17;-2.10;94.50
1650;DHT22;822;53.670;8.676;2023-03-01T05:20:44;-2.00;94.60
1650;DHT22;822;53.670;8.676;2023-03-01T05:23:11;-2.00;94.60
1650;DHT22;822;53.670;8.676;2023-03-01T05:25:41;-2.00;94.60
1650;DHT22;822;53.670;8.676;2023-03-01T05:28:11;-2.00;94.60
1650;DHT22;822;53.670;8.676;2023-03-01T05:30:40;-2.00;94.60
1650;DHT22;822;53.670;8.676;2023-03-01T05:33:07;-2.00;94.60
1650;DHT22;822;53.670;8.676;2023-03-01T05:35:39;-2.00;94.60
1650;DHT22;822;53.670;8.676;2023-03-01T05:38:06;-2.00;94.60
1650;DHT22;822;53.670;8.676;2023-03-01T05:40:34;-1.90;94.70
1650;DHT22;822;53.670;8.676;2023-03-01T05:43:01;-1.90;94.70
1650;DHT22;822;53.670;8.676;2023-03-01T05:45:31;-1.90;94.70
1650;DHT22;822;53.670;8.676;2023-03-01T05:48:00;-1.80;94.80
1650;DHT22;822;53.670;8.676;2023-03-01T05:50:29;-1.70;94.80
1650;DHT22;822;53.670;8.676;2023-03-01T05:53:01;-1.70;94.80
1650;DHT22;822;53.670;8.676;2023-03-01T05:55:33;-1.60;94.80
1650;DHT22;822;53.670;8.676;2023-03-01T05:58:01;-1.60;94.80
1650;DHT22;822;53.670;8.676;2023-03-01T06:00:30;-1.60;94.80
1650;DHT22;822;53.670;8.676;2023-03-01T06:02:58;-1.50;94.90
1650;DHT22;822;53.670;8.676;2023-03-01T06:05:27;-1.50;94.80
1650;DHT22;822;53.670;8.676;2023-03-01T06:07:54;-1.50;94.80
1650;DHT22;822;53.670;8.676;2023-03-01T06:10:22;-1.50;94.80
1650;DHT22;822;53.670;8.676;2023-03-01T06:12:49;-1.50;94.90
1650;DHT22;822;53.670;8.676;2023-03-01T06:15:16;-1.50;94.90
1650;DHT22;822;53.670;8.676;2023-03-01T06:17:45;-1.50;94.90
1650;DHT22;822;53.670;8.676;2023-03-01T06:20:14;-1.50;94.90
1650;DHT22;822;53.670;8.676;2023-03-01T06:22:43;-1.50;95.00
1650;DHT22;822;53.670;8.676;2023-03-01T06:25:11;-1.50;95.00
1650;DHT22;822;53.670;8.676;2023-03-01T06:27:39;-1.50;95.00
1650;DHT22;822;53.670;8.676;2023-03-01T06:30:08;-1.50;95.00
1650;DHT22;822;53.670;8.676;2023-03-01T06:32:36;-1.50;95.00
1650;DHT22;822;53.670;8.676;2023-03-01T06:35:04;-1.50;95.00
1650;DHT22;822;53.670;8.676;2023-03-01T06:37:31;-1.50;95.00
1650;DHT22;822;53.670;8.676;2023-03-01T06:39:59;-1.50;95.10
1650;DHT22;822;53.670;8.676;2023-03-01T06:42:30;-1.40;95.10
1650;DHT22;822;53.670;8.676;2023-03-01T06:44:57;-1.50;95.10
1650;DHT22;822;53.670;8.676;2023-03-01T06:47:24;-1.50;95.00
1650;DHT22;822;53.670;8.676;2023-03-01T06:49:51;-1.50;95.00
1650;DHT22;822;53.670;8.676;2023-03-01T06:52:18;-1.60;95.00
1650;DHT22;822;53.670;8.676;2023-03-01T06:54:45;-1.50;95.10
1650;DHT22;822;53.670;8.676;2023-03-01T06:57:14;-1.50;95.20
1650;DHT22;822;53.670;8.676;2023-03-01T06:59:41;-1.50;95.20
1650;DHT22;822;53.670;8.676;2023-03-01T07:02:10;-1.50;95.20
1650;DHT22;822;53.670;8.676;2023-03-01T07:04:37;-1.40;95.20
1650;DHT22;822;53.670;8.676;2023-03-01T07:07:04;-1.50;95.20
1650;DHT22;822;53.670;8.676;2023-03-01T07:09:31;-1.40;95.20
1650;DHT22;822;53.670;8.676;2023-03-01T07:11:58;-1.40;95.30
1650;DHT22;822;53.670;8.676;2023-03-01T07:14:27;-1.40;95.30
1650;DHT22;822;53.670;8.676;2023-03-01T07:16:54;-1.40;95.20
1650;DHT22;822;53.670;8.676;2023-03-01T07:19:22;-1.40;95.30
1650;DHT22;822;53.670;8.676;2023-03-01T07:21:49;-1.30;95.40
1650;DHT22;822;53.670;8.676;2023-03-01T07:24:20;-1.30;95.40
1650;DHT22;822;53.670;8.676;2023-03-01T07:26:48;-1.30;95.40
1650;DHT22;822;53.670;8.676;2023-03-01T07:29:16;-1.20;95.40
1650;DHT22;822;53.670;8.676;2023-03-01T07:31:45;-1.20;95.50
1650;DHT22;822;53.670;8.676;2023-03-01T07:34:12;-1.20;95.40
1650;DHT22;822;53.670;8.676;2023-03-01T07:36:42;-1.10;95.40
1650;DHT22;822;53.670;8.676;2023-03-01T07:39:11;-1.10;95.40
1650;DHT22;822;53.670;8.676;2023-03-01T07:41:38;-1.10;95.40
1650;DHT22;822;53.670;8.676;2023-03-01T07:44:05;-1.10;95.50
1650;DHT22;822;53.670;8.676;2023-03-01T07:46:32;-1.00;95.50
1650;DHT22;822;53.670;8.676;2023-03-01T07:49:04;-1.00;95.50
1650;DHT22;822;53.670;8.676;2023-03-01T07:51:31;-1.00;95.40
1650;DHT22;822;53.670;8.676;2023-03-01T07:53:58;-1.00;95.40
1650;DHT22;822;53.670;8.676;2023-03-01T07:56:25;-0.90;95.50
1650;DHT22;822;53.670;8.676;2023-03-01T07:58:52;-0.90;95.60
1650;DHT22;822;53.670;8.676;2023-03-01T08:01:20;-0.80;95.60
1650;DHT22;822;53.670;8.676;2023-03-01T08:03:48;-0.70;95.70
1650;DHT22;822;53.670;8.676;2023-03-01T08:06:18;-0.70;95.60
1650;DHT22;822;53.670;8.676;2023-03-01T08:08:45;-0.70;95.60
1650;DHT22;822;53.670;8.676;2023-03-01T08:11:13;-0.70;95.50
1650;DHT22;822;53.670;8.676;2023-03-01T08:13:41;-0.70;95.50
1650;DHT22;822;53.670;8.676;2023-03-01T08:16:11;-0.60;95.60
1650;DHT22;822;53.670;8.676;2023-03-01T08:18:39;-0.60;95.60
1650;DHT22;822;53.670;8.676;2023-03-01T08:21:07;-0.50;95.60
1650;DHT22;822;53.670;8.676;2023-03-01T08:23:36;-0.50;95.70
1650;DHT22;822;53.670;8.676;2023-03-01T08:26:06;-0.40;95.70
1650;DHT22;822;53.670;8.676;2023-03-01T08:28:34;-0.40;95.70
1650;DHT22;822;53.670;8.676;2023-03-01T08:31:01;-0.30;95.80
1650;DHT22;822;53.670;8.676;2023-03-01T08:33:30;-0.20;95.80
1650;DHT22;822;53.670;8.676;2023-03-01T08:36:09;-0.10;95.80
1650;DHT22;822;53.670;8.676;2023-03-01T08:38:40;-0.10;95.80
1650;DHT22;822;53.670;8.676;2023-03-01T08:41:07;0.00;95.80
1650;DHT22;822;53.670;8.676;2023-03-01T08:43:34;0.00;95.90
1650;DHT22;822;53.670;8.676;2023-03-01T08:46:01;0.10;95.90
1650;DHT22;822;53.670;8.676;2023-03-01T08:48:28;0.20;95.90
1650;DHT22;822;53.670;8.676;2023-03-01T08:50:55;0.20;95.90
1650;DHT22;822;53.670;8.676;2023-03-01T08:53:23;0.30;96.00
1650;DHT22;822;53.670;8.676;2023-03-01T08:55:51;0.40;96.00
1650;DHT22;822;53.670;8.676;2023-03-01T08:58:18;0.50;96.00
1650;DHT22;822;53.670;8.676;2023-03-01T09:00:45;0.60;96.10
1650;DHT22;822;53.670;8.676;2023-03-01T09:03:12;0.70;96.30
1650;DHT22;822;53.670;8.676;2023-03-01T09:05:39;0.80;96.00
1650;DHT22;822;53.670;8.676;2023-03-01T09:08:13;0.80;96.00
1650;DHT22;822;53.670;8.676;2023-03-01T09:10:40;0.90;96.10
1650;DHT22;822;53.670;8.676;2023-03-01T09:13:18;1.00;96.00
1650;DHT22;822;53.670;8.676;2023-03-01T09:15:45;1.10;96.10
1650;DHT22;822;53.670;8.676;2023-03-01T09:18:12;1.20;96.10
1650;DHT22;822;53.670;8.676;2023-03-01T09:20:39;1.30;96.10
1650;DHT22;822;53.670;8.676;2023-03-01T09:23:07;1.40;96.10
1650;DHT22;822;53.670;8.676;2023-03-01T09:25:34;1.50;96.00
1650;DHT22;822;53.670;8.676;2023-03-01T09:28:01;1.50;96.00
1650;DHT22;822;53.670;8.676;2023-03-01T09:30:30;1.60;96.00
1650;DHT22;822;53.670;8.676;2023-03-01T09:32:57;1.70;96.10
1650;DHT22;822;53.670;8.676;2023-03-01T09:35:24;1.80;96.10
1650;DHT22;822;53.670;8.676;2023-03-01T09:37:52;1.80;96.10
1650;DHT22;822;53.670;8.676;2023-03-01T09:40:20;1.90;96.10
1650;DHT22;822;53.670;8.676;2023-03-01T09:42:55;2.00;96.10
1650;DHT22;822;53.670;8.676;2023-03-01T09:45:33;2.20;96.20
1650;DHT22;822;53.670;8.676;2023-03-01T09:48:02;2.30;96.10
1650;DHT22;822;53.670;8.676;2023-03-01T09:50:34;2.40;96.10
1650;DHT22;822;53.670;8.676;2023-03-01T09:53:04;2.50;96.10
1650;DHT22;822;53.670;8.676;2023-03-01T09:55:39;2.50;96.10
1650;DHT22;822;53.670;8.676;2023-03-01T09:58:28;2.60;96.10
1650;DHT22;822;53.670;8.676;2023-03-01T10:01:00;2.70;96.00
1650;DHT22;822;53.670;8.676;2023-03-01T10:03:36;2.80;96.00
1650;DHT22;822;53.670;8.676;2023-03-01T10:06:11;2.90;96.00
1650;DHT22;822;53.670;8.676;2023-03-01T10:08:42;3.00;96.00
1650;DHT22;822;53.670;8.676;2023-03-01T10:11:19;3.10;96.10
1650;DHT22;822;53.670;8.676;2023-03-01T10:13:52;3.20;96.10
1650;DHT22;822;53.670;8.676;2023-03-01T10:16:27;3.30;96.10
1650;DHT22;822;53.670;8.676;2023-03-01T10:18:58;3.40;96.10
1650;DHT22;822;53.670;8.676;2023-03-01T10:21:28;3.60;96.10
1650;DHT22;822;53.670;8.676;2023-03-01T10:24:08;3.70;96.10
1650;DHT22;822;53.670;8.676;2023-03-01T10:26:55;3.80;96.00
1650;DHT22;822;53.670;8.676;2023-03-01T10:29:26;4.00;96.10
1650;DHT22;822;53.670;8.676;2023-03-01T10:31:59;4.10;96.00
1650;DHT22;822;53.670;8.676;2023-03-01T10:34:33;4.30;96.00
1650;DHT22;822;53.670;8.676;2023-03-01T10:37:09;4.40;95.90
1650;DHT22;822;53.670;8.676;2023-03-01T10:39:36;4.50;95.80
1650;DHT22;822;53.670;8.676;2023-03-01T10:42:05;4.60;95.80
1650;DHT22;822;53.670;8.676;2023-03-01T10:44:41;4.70;95.70
1650;DHT22;822;53.670;8.676;2023-03-01T10:47:21;4.80;95.60
1650;DHT22;822;53.670;8.676;2023-03-01T10:50:00;4.90;95.70
1650;DHT22;822;53.670;8.676;2023-03-01T10:52:33;5.10;95.80
1650;DHT22;822;53.670;8.676;2023-03-01T10:55:03;5.20;94.70
1650;DHT22;822;53.670;8.676;2023-03-01T10:57:35;5.50;94.80
1650;DHT22;822;53.670;8.676;2023-03-01T11:00:24;5.70;94.60
1650;DHT22;822;53.670;8.676;2023-03-01T11:03:03;5.80;94.00
1650;DHT22;822;53.670;8.676;2023-03-01T11:05:36;6.00;94.00
1650;DHT22;822;53.670;8.676;2023-03-01T11:08:03;6.20;93.00
1650;DHT22;822;53.670;8.676;2023-03-01T11:10:32;6.30;92.00
1650;DHT22;822;53.670;8.676;2023-03-01T11:13:07;6.30;91.80
1650;DHT22;822;53.670;8.676;2023-03-01T11:15:35;6.40;91.30
1650;DHT22;822;53.670;8.676;2023-03-01T11:18:04;6.60;91.00
1650;DHT22;822;53.670;8.676;2023-03-01T11:20:33;6.70;90.20
1650;DHT22;822;53.670;8.676;2023-03-01T11:23:04;6.70;88.90
1650;DHT22;822;53.670;8.676;2023-03-01T11:25:36;6.70;88.90
1650;DHT22;822;53.670;8.676;2023-03-01T11:28:05;6.80;87.80
1650;DHT22;822;53.670;8.676;2023-03-01T11:30:37;6.90;89.00
1650;DHT22;822;53.670;8.676;2023-03-01T11:33:19;7.00;87.70
1650;DHT22;822;53.670;8.676;2023-03-01T11:35:50;7.00;86.00
1650;DHT22;822;53.670;8.676;2023-03-01T11:38:22;7.00;86.10
1650;DHT22;822;53.670;8.676;2023-03-01T11:40:54;7.00;86.20
1650;DHT22;822;53.670;8.676;2023-03-01T11:43:31;7.00;86.40
1650;DHT22;822;53.670;8.676;2023-03-01T11:46:31;7.10;86.40
1650;DHT22;822;53.670;8.676;2023-03-01T11:49:12;7.20;85.80
1650;DHT22;822;53.670;8.676;2023-03-01T11:51:51;7.30;85.30
1650;DHT22;822;53.670;8.676;2023-03-01T11:54:28;7.50;84.10
1650;DHT22;822;53.670;8.676;2023-03-01T11:57:01;7.50;83.30
1650;DHT22;822;53.670;8.676;2023-03-01T11:59:54;7.50;82.90
1650;DHT22;822;53.670;8.676;2023-03-01T12:02:54;7.50;82.50
1650;DHT22;822;53.670;8.676;2023-03-01T12:05:51;7.50;83.50
1650;DHT22;822;53.670;8.676;2023-03-01T12:08:28;7.50;83.70
1650;DHT22;822;53.670;8.676;2023-03-01T12:11:03;7.70;82.40
1650;DHT22;822;53.670;8.676;2023-03-01T12:13:57;7.90;81.60
1650;DHT22;822;53.670;8.676;2023-03-01T12:16:48;8.00;80.70
1650;DHT22;822;53.670;8.676;2023-03-01T12:19:41;8.00;78.60
1650;DHT22;822;53.670;8.676;2023-03-01T12:22:21;8.00;79.80
1650;DHT22;822;53.670;8.676;2023-03-01T12:30:55;8.60;78.00
1650;DHT22;822;53.670;8.676;2023-03-01T12:33:31;8.80;76.70
1650;DHT22;822;53.670;8.676;2023-03-01T12:36:34;9.00;76.70
1650;DHT22;822;53.670;8.676;2023-03-01T12:39:19;9.00;73.80
1650;DHT22;822;53.670;8.676;2023-03-01T12:41:55;9.00;75.20
1650;DHT22;822;53.670;8.676;2023-03-01T12:44:46;9.30;74.60
1650;DHT22;822;53.670;8.676;2023-03-01T12:47:30;9.30;73.50
1650;DHT22;822;53.670;8.676;2023-03-01T12:50:03;9.40;73.60
1650;DHT22;822;53.670;8.676;2023-03-01T12:52:37;9.60;73.80
1650;DHT22;822;53.670;8.676;2023-03-01T12:55:19;9.60;72.30
1650;DHT22;822;53.670;8.676;2023-03-01T12:57:53;9.50;70.90
1650;DHT22;822;53.670;8.676;2023-03-01T13:00:28;9.50;73.10
1650;DHT22;822;53.670;8.676;2023-03-01T13:03:04;9.70;72.00
1650;DHT22;822;53.670;8.676;2023-03-01T13:05:45;9.90;70.30
1650;DHT22;822;53.670;8.676;2023-03-01T13:08:20;9.90;68.20
1650;DHT22;822;53.670;8.676;2023-03-01T13:10:53;9.70;69.80
1650;DHT22;822;53.670;8.676;2023-03-01T13:13:25;9.70;69.70
1650;DHT22;822;53.670;8.676;2023-03-01T13:15:53;9.70;69.50
1650;DHT22;822;53.670;8.676;2023-03-01T13:18:32;9.60;70.00
1650;DHT22;822;53.670;8.676;2023-03-01T13:21:01;9.70;71.00
1650;DHT22;822;53.670;8.676;2023-03-01T13:23:36;9.80;71.70
1650;DHT22;822;53.670;8.676;2023-03-01T13:26:14;9.90;69.90
1650;DHT22;822;53.670;8.676;2023-03-01T13:28:51;9.80;70.90
1650;DHT22;822;53.670;8.676;2023-03-01T13:34:53;9.60;69.90
1650;DHT22;822;53.670;8.676;2023-03-01T13:37:34;9.40;70.30
1650;DHT22;822;53.670;8.676;2023-03-01T13:43:28;9.20;71.90
1650;DHT22;822;53.670;8.676;2023-03-01T13:45:57;9.20;73.10
1650;DHT22;822;53.670;8.676;2023-03-01T13:48:28;9.10;71.80
1650;DHT22;822;53.670;8.676;2023-03-01T13:50:58;9.10;72.20
1650;DHT22;822;53.670;8.676;2023-03-01T13:53:29;9.00;72.90
1650;DHT22;822;53.670;8.676;2023-03-01T13:56:00;9.00;72.60
1650;DHT22;822;53.670;8.676;2023-03-01T13:58:30;8.80;71.80
1650;DHT22;822;53.670;8.676;2023-03-01T14:00:59;8.70;73.30
1650;DHT22;822;53.670;8.676;2023-03-01T14:03:27;8.60;75.20
1650;DHT22;822;53.670;8.676;2023-03-01T14:06:02;8.70;76.10
1650;DHT22;822;53.670;8.676;2023-03-01T14:08:33;8.70;75.00
1650;DHT22;822;53.670;8.676;2023-03-01T14:14:50;8.50;75.10
1650;DHT22;822;53.670;8.676;2023-03-01T14:17:47;8.40;75.70
1650;DHT22;822;53.670;8.676;2023-03-01T14:20:19;8.30;76.80
1650;DHT22;822;53.670;8.676;2023-03-01T14:22:47;8.30;77.30
1650;DHT22;822;53.670;8.676;2023-03-01T14:25:25;8.20;77.60
1650;DHT22;822;53.670;8.676;2023-03-01T14:28:02;8.00;76.50
1650;DHT22;822;53.670;8.676;2023-03-01T14:30:34;7.80;78.30
1650;DHT22;822;53.670;8.676;2023-03-01T14:33:03;7.80;79.30
1650;DHT22;822;53.670;8.676;2023-03-01T14:35:33;7.70;80.10
1650;DHT22;822;53.670;8.676;2023-03-01T14:38:00;7.60;79.00
1650;DHT22;822;53.670;8.676;2023-03-01T14:40:29;7.40;79.60
1650;DHT22;822;53.670;8.676;2023-03-01T14:42:58;7.30;80.70
1650;DHT22;822;53.670;8.676;2023-03-01T14:45:28;7.20;80.60
1650;DHT22;822;53.670;8.676;2023-03-01T14:47:59;7.10;81.30
1650;DHT22;822;53.670;8.676;2023-03-01T14:50:29;6.90;81.90
1650;DHT22;822;53.670;8.676;2023-03-01T14:52:58;6.80;83.00
1650;DHT22;822;53.670;8.676;2023-03-01T14:55:30;6.70;83.30
1650;DHT22;822;53.670;8.676;2023-03-01T14:57:57;6.70;84.10
1650;DHT22;822;53.670;8.676;2023-03-01T15:00:27;6.60;84.00
1650;DHT22;822;53.670;8.676;2023-03-01T15:02:58;6.60;84.70
1650;DHT22;822;53.670;8.676;2023-03-01T15:05:29;6.40;84.20
1650;DHT22;822;53.670;8.676;2023-03-01T15:07:58;6.30;84.80
1650;DHT22;822;53.670;8.676;2023-03-01T15:10:27;6.30;85.80
1650;DHT22;822;53.670;8.676;2023-03-01T15:13:11;6.20;85.90
1650;DHT22;822;53.670;8.676;2023-03-01T15:15:40;6.10;86.20
1650;DHT22;822;53.670;8.676;2023-03-01T15:18:17;6.10;86.50
1650;DHT22;822;53.670;8.676;2023-03-01T15:20:45;6.00;86.70
1650;DHT22;822;53.670;8.676;2023-03-01T15:23:20;6.00;87.00
1650;DHT22;822;53.670;8.676;2023-03-01T15:25:49;6.00;87.40
1650;DHT22;822;53.670;8.676;2023-03-01T15:28:23;5.90;87.70
1650;DHT22;822;53.670;8.676;2023-03-01T15:31:00;5.80;87.80
1650;DHT22;822;53.670;8.676;2023-03-01T15:33:35;5.80;88.40
1650;DHT22;822;53.670;8.676;2023-03-01T15:38:53;5.70;88.40
1650;DHT22;822;53.670;8.676;2023-03-01T15:41:26;5.70;88.40
1650;DHT22;822;53.670;8.676;2023-03-01T15:43:53;5.50;88.50
1650;DHT22;822;53.670;8.676;2023-03-01T15:46:32;5.50;89.00
1650;DHT22;822;53.670;8.676;2023-03-01T15:49:04;5.40;89.40
1650;DHT22;822;53.670;8.676;2023-03-01T15:51:34;5.50;90.00
1650;DHT22;822;53.670;8.676;2023-03-01T15:54:04;5.50;90.00
1650;DHT22;822;53.670;8.676;2023-03-01T15:56:32;5.30;89.60
1650;DHT22;822;53.670;8.676;2023-03-01T15:59:03;5.20;90.00
1650;DHT22;822;53.670;8.676;2023-03-01T16:01:32;5.20;90.10
1650;DHT22;822;53.670;8.676;2023-03-01T16:04:01;5.10;90.10
1650;DHT22;822;53.670;8.676;2023-03-01T16:06:28;5.10;90.40
1650;DHT22;822;53.670;8.676;2023-03-01T16:08:55;5.10;90.50
1650;DHT22;822;53.670;8.676;2023-03-01T16:11:22;5.00;90.60
1650;DHT22;822;53.670;8.676;2023-03-01T16:13:49;5.00;91.00
1650;DHT22;822;53.670;8.676;2023-03-01T16:16:17;5.00;91.10
1650;DHT22;822;53.670;8.676;2023-03-01T16:18:45;5.00;91.10
1650;DHT22;822;53.670;8.676;2023-03-01T16:21:18;5.00;91.30
1650;DHT22;822;53.670;8.676;2023-03-01T16:23:46;5.00;91.40
1650;DHT22;822;53.670;8.676;2023-03-01T16:26:19;5.00;91.20
1650;DHT22;822;53.670;8.676;2023-03-01T16:28:46;4.90;91.10
1650;DHT22;822;53.670;8.676;2023-03-01T16:31:17;4.80;91.20
1650;DHT22;822;53.670;8.676;2023-03-01T16:33:45;4.80;91.30
1650;DHT22;822;53.670;8.676;2023-03-01T16:36:18;4.70;91.20
1650;DHT22;822;53.670;8.676;2023-03-01T16:38:45;4.60;91.40
1650;DHT22;822;53.670;8.676;2023-03-01T16:41:15;4.60;91.60
1650;DHT22;822;53.670;8.676;2023-03-01T16:43:43;4.60;91.60
1650;DHT22;822;53.670;8.676;2023-03-01T16:46:13;4.50;91.40
1650;DHT22;822;53.670;8.676;2023-03-01T16:48:41;4.40;91.80
1650;DHT22;822;53.670;8.676;2023-03-01T16:51:08;4.40;91.70
1650;DHT22;822;53.670;8.676;2023-03-01T16:53:37;4.30;91.60
1650;DHT22;822;53.670;8.676;2023-03-01T16:56:07;4.30;91.90
1650;DHT22;822;53.670;8.676;2023-03-01T16:58:35;4.20;92.00
1650;DHT22;822;53.670;8.676;2023-03-01T17:01:07;4.20;92.00
1650;DHT22;822;53.670;8.676;2023-03-01T17:03:36;4.10;92.10
1650;DHT22;822;53.670;8.676;2023-03-01T17:06:05;4.10;92.30
1650;DHT22;822;53.670;8.676;2023-03-01T17:08:32;4.10;92.40
1650;DHT22;822;53.670;8.676;2023-03-01T17:11:06;4.10;92.50